.
WxDataArchive / Data Records for 2014-08-15
2014-08-14 August 2014 2014-08-16

Data Records for Friday, 15 August 2014

Time	Temp	Chill	HIndex	Humid	Dewpt	 Wind 	HiWind	WindDir	Rain 	Barom
-----	----	-----	------	-----	-----	------	------	-------	-----	-----
00:00	56.5	56.5	56.5	67	45.7	0	1	315	0.00	30.029 
00:05	56.3	56.3	56.3	68	45.9	0	0	---	0.00	30.029 
00:10	56.2	56.2	56.2	68	45.8	0	0	---	0.00	30.029 
00:15	55.9	55.9	55.9	69	45.9	0	1	315	0.00	30.027 
00:20	55.7	55.7	55.7	69	45.7	0	0	---	0.00	30.027 
00:25	55.7	55.7	55.7	69	45.7	0	1	315	0.00	30.027 
00:30	55.6	55.6	55.6	69	45.6	0	0	---	0.00	30.023 
00:35	55.4	55.4	55.4	69	45.4	0	1	315	0.00	30.023 
00:40	55.3	55.3	55.3	69	45.3	0	1	315	0.00	30.023 
00:45	55.3	55.3	55.3	69	45.3	0	0	---	0.00	30.022 
00:50	55.1	55.1	55.1	69	45.1	0	1	315	0.00	30.022 
00:55	55.0	55.0	55.0	70	45.4	0	1	315	0.00	30.022 
01:00	54.7	54.7	54.7	70	45.1	0	0	---	0.00	30.021 
01:05	54.7	54.7	54.7	70	45.1	0	1	315	0.00	30.021 
01:10	54.5	54.5	54.5	70	44.9	0	1	315	0.00	30.021 
01:15	54.5	54.5	54.5	70	44.9	0	1	315	0.00	30.018 
01:20	54.5	54.5	54.5	70	44.9	0	0	---	0.00	30.018 
01:25	54.4	54.4	54.4	70	44.8	0	0	---	0.00	30.018 
01:30	54.2	54.2	54.2	71	45.0	0	1	315	0.00	30.019 
01:35	54.1	54.1	54.1	71	44.9	0	0	---	0.00	30.019 
01:40	53.8	53.8	53.8	72	45.0	0	0	---	0.00	30.019 
01:45	53.6	53.6	53.6	72	44.8	0	0	---	0.00	30.016 
01:50	53.5	53.5	53.5	73	45.1	0	0	---	0.00	30.016 
01:55	53.5	53.5	53.5	73	45.1	0	0	---	0.00	30.016 
02:00	53.3	53.3	53.3	73	44.9	0	0	---	0.00	30.015 
02:05	53.1	53.1	53.1	74	45.0	0	0	---	0.00	30.015 
02:10	52.9	52.9	52.9	74	44.8	0	0	---	0.00	30.015 
02:15	52.9	52.9	52.9	74	44.8	0	0	---	0.00	30.015 
02:20	52.9	52.9	52.9	74	44.8	0	0	---	0.00	30.015 
02:25	52.8	52.8	52.8	74	44.7	0	0	---	0.00	30.015 
02:30	52.8	52.8	52.8	75	45.1	0	0	---	0.00	30.015 
02:35	52.6	52.6	52.6	75	44.9	0	0	---	0.00	30.015 
02:40	52.3	52.3	52.3	76	45.0	0	0	---	0.00	30.015 
02:45	52.2	52.2	52.2	76	44.9	0	0	---	0.00	30.018 
02:50	52.0	52.0	52.0	77	45.0	0	0	---	0.00	30.018 
02:55	51.9	51.9	51.9	77	44.9	0	0	---	0.00	30.018 
03:00	51.7	51.7	51.7	77	44.7	0	0	---	0.00	30.018 
03:05	51.6	51.6	51.6	78	45.0	0	0	---	0.00	30.018 
03:10	51.4	51.4	51.4	78	44.8	0	0	---	0.00	30.018 
03:15	51.3	51.3	51.3	79	45.0	0	0	---	0.00	30.017 
03:20	51.1	51.1	51.1	79	44.8	0	0	---	0.00	30.017 
03:25	51.1	51.1	51.1	79	44.8	0	0	---	0.00	30.017 
03:30	51.1	51.1	51.1	79	44.8	0	0	---	0.00	30.017 
03:35	51.0	51.0	51.0	80	45.0	0	0	---	0.00	30.017 
03:40	50.8	50.8	50.8	80	44.9	0	0	---	0.00	30.017 
03:45	50.7	50.7	50.7	80	44.8	0	0	---	0.00	30.017 
03:50	50.5	50.5	50.5	81	44.9	0	0	---	0.00	30.017 
03:55	50.4	50.4	50.4	81	44.8	0	0	---	0.00	30.017 
04:00	50.2	50.2	50.2	81	44.6	0	0	---	0.00	30.018 
04:05	50.1	50.1	50.1	81	44.5	0	0	---	0.00	30.018 
04:10	49.9	49.9	49.9	81	44.3	0	0	---	0.00	30.018 
04:15	49.8	49.8	49.8	82	44.5	0	0	---	0.00	30.018 
04:20	49.5	49.5	49.5	82	44.2	0	0	---	0.00	30.018 
04:25	49.4	49.4	49.4	82	44.1	0	0	---	0.00	30.018 
04:30	49.2	49.2	49.2	83	44.3	0	0	---	0.00	30.020 
04:35	49.1	49.1	49.1	83	44.2	0	0	---	0.00	30.020 
04:40	48.9	48.9	48.9	84	44.3	0	0	---	0.00	30.020 
04:45	48.8	48.8	48.8	84	44.2	0	0	---	0.00	30.024 
04:50	48.6	48.6	48.6	84	44.0	0	0	---	0.00	30.024 
04:55	48.5	48.5	48.5	85	44.2	0	0	---	0.00	30.024 
05:00	48.3	48.3	48.3	85	44.0	0	0	---	0.00	30.024 
05:05	48.3	48.3	48.3	85	44.0	0	0	---	0.00	30.024 
05:10	48.2	48.2	48.2	85	43.9	0	0	---	0.00	30.024 
05:15	48.2	48.2	48.2	86	44.2	0	0	---	0.00	30.023 
05:20	48.2	48.2	48.2	86	44.2	0	0	---	0.00	30.023 
05:25	48.2	48.2	48.2	86	44.2	0	0	---	0.00	30.023 
05:30	48.0	48.0	48.0	86	44.0	0	0	---	0.00	30.029 
05:35	48.0	48.0	48.0	86	44.0	0	0	---	0.00	30.029 
05:40	47.9	47.9	47.9	86	43.9	0	0	---	0.00	30.029 
05:45	47.7	47.7	47.7	86	43.7	0	0	---	0.00	30.035 
05:50	47.6	47.6	47.6	86	43.6	0	0	---	0.00	30.035 
05:55	47.3	47.3	47.3	86	43.3	0	0	---	0.00	30.035 
06:00	47.1	47.1	47.1	86	43.1	0	0	---	0.00	30.038 
06:05	46.8	46.8	46.8	86	42.8	0	0	---	0.00	30.038 
06:10	46.7	46.7	46.7	86	42.7	0	0	---	0.00	30.038 
06:15	46.5	46.5	46.5	86	42.5	0	0	---	0.00	30.039 
06:20	46.4	46.4	46.4	87	42.7	0	0	---	0.00	30.039 
06:25	46.2	46.2	46.2	87	42.5	0	0	---	0.00	30.039 
06:30	46.1	46.1	46.1	87	42.4	0	0	---	0.00	30.042 
06:35	46.0	46.0	46.0	88	42.6	0	0	---	0.00	30.042 
06:40	45.8	45.8	45.8	88	42.5	0	0	---	0.00	30.042 
06:45	45.5	45.5	45.5	88	42.2	0	0	---	0.00	30.043 
06:50	45.4	45.4	45.4	88	42.1	0	0	---	0.00	30.043 
06:55	45.4	45.4	45.4	88	42.1	0	0	---	0.00	30.043 
07:00	45.2	45.2	45.2	89	42.2	0	0	---	0.00	30.046 
07:05	45.2	45.2	45.2	89	42.2	0	0	---	0.00	30.046 
07:10	45.1	45.1	45.1	89	42.1	0	0	---	0.00	30.046 
07:15	45.1	45.1	45.1	89	42.1	0	0	---	0.00	30.055 
07:20	45.2	45.2	45.2	90	42.4	0	0	---	0.00	30.055 
07:25	45.2	45.2	45.2	90	42.4	0	0	---	0.00	30.055 
07:30	45.2	45.2	45.2	90	42.4	0	0	---	0.00	30.056 
07:35	45.4	45.4	45.4	91	42.9	0	0	---	0.00	30.056 
07:40	45.8	45.8	45.8	91	43.3	0	0	---	0.00	30.056 
07:45	46.1	46.1	46.1	92	43.9	0	0	---	0.00	30.060 
07:50	46.5	46.5	46.5	92	44.3	0	0	---	0.00	30.060 
07:55	47.3	47.3	47.3	92	45.1	0	0	---	0.00	30.060 
08:00	48.0	48.0	48.0	92	45.8	0	1	315	0.00	30.061 
08:05	48.8	48.8	48.8	91	46.3	0	1	315	0.00	30.061 
08:10	49.6	49.6	49.6	91	47.1	0	1	315	0.00	30.061 
08:15	50.4	50.4	50.4	89	47.3	0	1	315	0.00	30.067 
08:20	51.0	51.0	51.0	87	47.3	0	1	315	0.00	30.067 
08:25	51.6	51.6	51.6	85	47.2	0	2	315	0.00	30.067 
08:30	52.2	52.2	52.2	84	47.5	0	1	315	0.00	30.070 
08:35	52.6	52.6	52.6	81	46.9	0	2	315	0.00	30.070 
08:40	53.2	53.2	53.2	80	47.2	0	2	315	0.00	30.070 
08:45	53.6	53.6	53.6	78	46.9	0	2	315	0.00	30.069 
08:50	54.2	54.2	54.2	78	47.5	0	1	315	0.00	30.069 
08:55	54.7	54.7	54.7	77	47.6	0	1	315	0.00	30.069 
09:00	55.1	55.1	55.1	75	47.3	0	1	315	0.00	30.066 
09:05	55.6	55.6	55.6	75	47.8	0	1	315	0.00	30.066 
09:10	56.0	56.0	56.0	73	47.5	0	1	315	0.00	30.066 
09:15	56.6	56.6	56.6	74	48.4	0	0	---	0.00	30.069 
09:20	57.2	57.2	57.2	72	48.3	0	1	315	0.00	30.069 
09:25	57.6	57.6	57.6	70	47.9	0	1	315	0.00	30.069 
09:30	58.1	58.1	58.1	69	48.0	0	2	315	0.00	30.069 
09:35	58.7	58.7	58.7	69	48.6	0	1	315	0.00	30.069 
09:40	59.0	59.0	59.0	66	47.7	0	1	315	0.00	30.069 
09:45	59.8	59.8	59.8	65	48.0	0	2	315	0.00	30.067 
09:50	60.5	60.5	60.5	63	47.8	0	1	315	0.00	30.067 
09:55	61.2	61.2	61.2	62	48.1	0	1	315	0.00	30.067 
10:00	61.6	61.6	61.6	58	46.7	0	1	315	0.00	30.067 
10:05	62.0	62.0	62.0	57	46.6	0	1	315	0.00	30.067 
10:10	63.1	63.1	63.1	55	46.7	0	2	315	0.00	30.067 
10:15	63.9	63.9	63.9	53	46.4	0	2	315	0.00	30.066 
10:20	64.5	64.5	64.5	51	46.0	0	2	315	0.00	30.066 
10:25	65.3	65.3	65.3	51	46.7	0	2	315	0.00	30.066 
10:30	66.3	66.3	66.3	50	47.1	0	2	315	0.00	30.064 
10:35	66.3	66.3	66.3	47	45.5	0	2	315	0.00	30.064 
10:40	66.1	66.1	66.1	46	44.7	0	1	315	0.00	30.064 
10:45	66.8	66.8	66.8	46	45.3	0	1	315	0.00	30.066 
10:50	67.4	67.4	67.4	46	45.9	0	1	315	0.00	30.066 
10:55	67.3	67.3	67.3	46	45.8	0	2	315	0.00	30.066 
11:00	67.8	67.8	67.8	42	43.9	0	1	315	0.00	30.066 
11:05	68.4	68.4	68.4	43	45.0	0	1	315	0.00	30.066 
11:10	68.8	68.8	68.8	38	42.1	0	1	315	0.00	30.066 
11:15	69.4	69.4	69.4	37	42.0	0	2	315	0.00	30.068 
11:20	69.9	69.9	69.9	36	41.7	0	1	315	0.00	30.068 
11:25	69.9	69.9	69.9	36	41.7	0	2	315	0.00	30.068 
11:30	69.4	69.4	69.4	41	44.7	0	2	315	0.00	30.065 
11:35	69.3	69.3	69.3	39	43.3	1	2	315	0.00	30.065 
11:40	68.8	68.8	68.8	40	43.5	1	4	315	0.00	30.065 
11:45	68.9	68.9	68.9	45	46.7	0	4	68	0.00	30.063 
11:50	69.6	69.6	69.6	41	44.8	1	3	68	0.00	30.063 
11:55	70.3	70.3	70.3	38	43.5	0	2	68	0.00	30.063 
12:00	71.1	71.1	71.1	43	47.5	0	1	68	0.00	30.060 
12:05	70.9	70.9	70.9	40	45.4	0	2	68	0.00	30.060 
12:10	70.4	70.4	70.4	39	44.2	1	2	315	0.00	30.060 
12:15	70.4	70.4	70.4	43	46.8	0	3	315	0.00	30.063 
12:20	70.6	70.6	70.6	43	47.0	1	3	315	0.00	30.063 
12:25	70.8	70.8	70.8	43	47.2	0	2	315	0.00	30.063 
12:30	70.9	70.9	70.9	40	45.4	0	2	315	0.00	30.059 
12:35	71.3	71.3	71.3	41	46.4	0	1	315	0.00	30.059 
12:40	71.5	71.5	71.5	38	44.5	0	2	315	0.00	30.059 
12:45	71.5	71.5	71.5	39	45.2	1	3	315	0.00	30.053 
12:50	71.1	71.1	71.1	42	46.8	1	4	315	0.00	30.053 
12:55	70.9	70.9	70.9	38	44.0	0	2	315	0.00	30.053 
13:00	71.3	71.3	71.3	42	47.0	0	2	315	0.00	30.050 
13:05	71.8	71.8	71.8	40	46.2	0	2	315	0.00	30.050 
13:10	71.8	71.8	71.8	39	45.5	1	4	315	0.00	30.050 
13:15	71.8	71.8	71.8	40	46.2	0	2	315	0.00	30.050 
13:20	72.5	72.5	72.5	43	48.7	0	2	315	0.00	30.050 
13:25	72.3	72.3	72.3	35	43.1	2	5	270	0.00	30.050 
13:30	72.0	72.0	72.0	38	45.0	1	3	270	0.00	30.047 
13:35	72.1	72.1	72.1	41	47.1	0	2	270	0.00	30.047 
13:40	72.1	72.1	72.1	41	47.1	1	5	270	0.00	30.047 
13:45	72.1	72.1	72.1	36	43.7	2	4	292	0.00	30.046 
13:50	72.1	72.1	72.1	36	43.7	1	3	315	0.00	30.046 
13:55	72.3	72.3	72.3	37	44.6	0	2	315	0.00	30.046 
14:00	72.3	72.3	72.3	36	43.8	1	2	315	0.00	30.039 
14:05	72.7	72.7	72.7	36	44.2	1	3	112	0.00	30.039 
14:10	72.8	72.8	72.8	40	47.1	1	5	0	0.00	30.039 
14:15	72.8	72.8	72.8	35	43.5	1	2	338	0.00	30.038 
14:20	72.7	72.7	72.7	37	44.9	1	3	338	0.00	30.038 
14:25	73.0	73.0	73.0	37	45.2	1	4	112	0.00	30.038 
14:30	73.5	73.5	73.5	39	47.0	0	2	112	0.00	30.032 
14:35	73.7	73.7	73.7	37	45.8	0	3	112	0.00	30.032 
14:40	73.7	73.7	73.7	41	48.5	0	2	112	0.00	30.032 
14:45	73.7	73.7	73.7	36	45.1	1	3	112	0.00	30.031 
14:50	73.5	73.5	73.5	36	44.9	1	3	112	0.00	30.031 
14:55	73.0	73.0	73.0	37	45.2	1	3	22	0.00	30.031 
15:00	73.3	73.3	73.3	39	46.8	0	2	22	0.00	30.027 
15:05	74.0	74.0	74.0	42	49.4	0	4	22	0.00	30.027 
15:10	73.9	73.9	73.9	35	44.5	2	4	270	0.00	30.027 
15:15	73.7	73.7	73.7	35	44.3	1	3	292	0.00	30.021 
15:20	73.7	73.7	73.7	38	46.5	0	3	292	0.00	30.021 
15:25	73.7	73.7	73.7	39	47.2	1	4	292	0.00	30.021 
15:30	73.9	73.9	73.9	36	45.2	1	3	225	0.00	30.018 
15:35	74.0	74.0	74.0	39	47.5	0	1	270	0.00	30.018 
15:40	74.6	74.6	74.6	35	45.1	1	2	248	0.00	30.018 
15:45	75.1	75.1	77.3	36	46.3	0	2	248	0.00	30.016 
15:50	75.1	75.1	77.2	34	44.8	1	2	248	0.00	30.016 
15:55	74.9	74.9	74.9	35	45.4	1	4	248	0.00	30.016 
16:00	74.4	74.4	74.4	35	44.9	1	3	248	0.00	30.015 
16:05	74.2	74.2	74.2	38	46.9	1	4	292	0.00	30.015 
16:10	74.2	74.2	74.2	34	44.0	1	4	315	0.00	30.015 
16:15	74.0	74.0	74.0	35	44.6	1	4	338	0.00	30.014 
16:20	74.0	74.0	74.0	36	45.3	1	4	315	0.00	30.014 
16:25	74.2	74.2	74.2	35	44.8	0	2	315	0.00	30.014 
16:30	74.4	74.4	74.4	36	45.7	1	4	315	0.00	30.013 
16:35	74.6	74.6	74.6	36	45.9	1	4	270	0.00	30.013 
16:40	74.9	74.9	74.9	34	44.6	0	3	270	0.00	30.013 
16:45	74.9	74.9	74.9	36	46.1	0	3	270	0.00	30.005 
16:50	75.3	75.3	77.5	38	47.9	0	2	270	0.00	30.005 
16:55	75.6	75.6	77.6	37	47.5	0	2	270	0.00	30.005 
17:00	75.8	75.8	77.7	39	49.1	0	3	270	0.00	30.003 
17:05	76.3	76.3	77.8	37	48.1	0	1	270	0.00	30.003 
17:10	76.5	76.5	77.9	38	49.0	0	1	270	0.00	30.003 
17:15	76.5	76.5	77.8	36	47.5	0	2	270	0.00	30.001 
17:20	76.1	76.1	77.7	37	47.9	1	4	270	0.00	30.001 
17:25	76.3	76.3	77.7	36	47.4	0	1	270	0.00	30.001 
17:30	76.7	76.7	77.9	35	47.0	0	2	270	0.00	29.999 
17:35	77.0	77.0	77.9	34	46.5	0	2	270	0.00	29.999 
17:40	76.8	76.8	77.9	36	47.8	0	3	270	0.00	29.999 
17:45	76.0	76.0	77.5	34	45.6	1	4	270	0.00	30.000 
17:50	75.3	75.3	77.4	35	45.7	0	2	270	0.00	30.000 
17:55	75.1	75.1	77.4	37	47.0	0	2	270	0.00	30.000 
18:00	75.1	75.1	77.3	36	46.3	1	2	270	0.00	29.995 
18:05	74.9	74.9	74.9	35	45.4	1	2	270	0.00	29.995 
18:10	75.1	75.1	77.3	35	45.6	0	1	270	0.00	29.995 
18:15	75.1	75.1	77.4	38	47.7	0	0	---	0.00	29.990 
18:20	75.1	75.1	77.4	37	47.0	0	1	270	0.00	29.990 
18:25	74.6	74.6	74.6	35	45.1	0	3	270	0.00	29.990 
18:30	74.2	74.2	74.2	37	46.2	0	2	270	0.00	29.990 
18:35	73.9	73.9	73.9	39	47.4	0	1	270	0.00	29.990 
18:40	73.7	73.7	73.7	38	46.5	0	2	270	0.00	29.990 
18:45	73.7	73.7	73.7	37	45.8	1	3	270	0.00	29.990 
18:50	73.5	73.5	73.5	37	45.6	0	1	270	0.00	29.990 
18:55	73.3	73.3	73.3	38	46.1	0	1	270	0.00	29.990 
19:00	73.2	73.2	73.2	38	46.1	0	1	270	0.00	29.984 
19:05	73.0	73.0	73.0	35	43.7	0	2	270	0.00	29.984 
19:10	73.0	73.0	73.0	37	45.2	0	1	270	0.00	29.984 
19:15	73.0	73.0	73.0	38	45.9	0	0	---	0.00	29.976 
19:20	72.8	72.8	72.8	37	45.0	0	1	270	0.00	29.976 
19:25	72.7	72.7	72.7	35	43.5	1	3	270	0.00	29.976 
19:30	72.7	72.7	72.7	35	43.5	0	2	270	0.00	29.979 
19:35	72.5	72.5	72.5	38	45.4	0	0	---	0.00	29.979 
19:40	72.3	72.3	72.3	39	45.9	0	1	270	0.00	29.979 
19:45	72.1	72.1	72.1	39	45.8	0	1	270	0.00	29.976 
19:50	71.8	71.8	71.8	39	45.5	0	1	270	0.00	29.976 
19:55	71.6	71.6	71.6	38	44.6	0	1	270	0.00	29.976 
20:00	71.5	71.5	71.5	41	46.5	0	1	270	0.00	29.974 
20:05	71.1	71.1	71.1	41	46.2	0	0	---	0.00	29.974 
20:10	70.8	70.8	70.8	42	46.6	0	0	---	0.00	29.974 
20:15	70.6	70.6	70.6	43	47.0	0	0	---	0.00	29.971 
20:20	69.9	69.9	69.9	45	47.6	0	0	---	0.00	29.971 
20:25	69.1	69.1	69.1	46	47.4	0	0	---	0.00	29.971 
20:30	68.3	68.3	68.3	48	47.8	0	0	---	0.00	29.973 
20:35	67.6	67.6	67.6	50	48.3	0	0	---	0.00	29.973 
20:40	67.1	67.1	67.1	50	47.8	0	0	---	0.00	29.973 
20:45	66.6	66.6	66.6	51	47.9	0	0	---	0.00	29.971 
20:50	66.3	66.3	66.3	51	47.6	0	0	---	0.00	29.971 
20:55	66.0	66.0	66.0	53	48.4	0	0	---	0.00	29.971 
21:00	65.5	65.5	65.5	54	48.4	0	0	---	0.00	29.973 
21:05	65.0	65.0	65.0	55	48.4	0	0	---	0.00	29.973 
21:10	64.7	64.7	64.7	55	48.2	0	0	---	0.00	29.973 
21:15	64.2	64.2	64.2	57	48.6	0	0	---	0.00	29.968 
21:20	63.9	63.9	63.9	58	48.8	0	0	---	0.00	29.968 
21:25	63.5	63.5	63.5	59	48.9	0	0	---	0.00	29.968 
21:30	63.2	63.2	63.2	59	48.6	0	0	---	0.00	29.975 
21:35	62.9	62.9	62.9	60	48.8	0	0	---	0.00	29.975 
21:40	62.4	62.4	62.4	62	49.2	0	0	---	0.00	29.975 
21:45	62.1	62.1	62.1	63	49.3	0	0	---	0.00	29.983 
21:50	61.8	61.8	61.8	64	49.5	0	0	---	0.00	29.983 
21:55	61.5	61.5	61.5	65	49.6	0	0	---	0.00	29.983 
22:00	61.2	61.2	61.2	66	49.7	0	0	---	0.00	29.986 
22:05	60.7	60.7	60.7	67	49.7	0	0	---	0.00	29.986 
22:10	60.5	60.5	60.5	68	49.9	0	0	---	0.00	29.986 
22:15	60.2	60.2	60.2	69	50.0	0	0	---	0.00	29.982 
22:20	59.9	59.9	59.9	70	50.1	0	0	---	0.00	29.982 
22:25	59.6	59.6	59.6	71	50.2	0	0	---	0.00	29.982 
22:30	59.5	59.5	59.5	72	50.5	0	0	---	0.00	29.983 
22:35	59.2	59.2	59.2	73	50.5	0	0	---	0.00	29.983 
22:40	59.0	59.0	59.0	73	50.4	0	0	---	0.00	29.983 
22:45	58.7	58.7	58.7	73	50.1	0	0	---	0.00	29.985 
22:50	58.6	58.6	58.6	73	50.0	0	0	---	0.00	29.985 
22:55	58.3	58.3	58.3	74	50.0	0	0	---	0.00	29.985 
23:00	58.1	58.1	58.1	75	50.2	0	0	---	0.00	29.985 
23:05	57.8	57.8	57.8	76	50.3	0	0	---	0.00	29.985 
23:10	57.6	57.6	57.6	77	50.4	0	0	---	0.00	29.985 
23:15	57.5	57.5	57.5	77	50.3	0	0	---	0.00	29.982 
23:20	57.2	57.2	57.2	77	50.1	0	0	---	0.00	29.982 
23:25	57.0	57.0	57.0	78	50.2	0	0	---	0.00	29.982 
23:30	56.9	56.9	56.9	78	50.1	0	0	---	0.00	29.982 
23:35	56.7	56.7	56.7	79	50.3	0	0	---	0.00	29.982 
23:40	56.6	56.6	56.6	79	50.2	0	0	---	0.00	29.982 
23:45	56.5	56.5	56.5	79	50.1	0	0	---	0.00	29.982 
23:50	56.3	56.3	56.3	80	50.2	0	0	---	0.00	29.982 
23:55	56.2	56.2	56.2	80	50.1	0	0	---	0.00	29.982 

CoCoRaHS
IN-AL-39
A2 Web Hosting
Creative Commons License
GoDaddy
search engine by freefind advanced

loaded 2018-11-17 06:22:57 • last modified 2010-11-18 10:43:29
Privacy PolicyDisclaimer
• wx.awcolley.com is powered by PmWiki v.2002016 •
• all content (unless otherwise noted) © 2018 A W Colley